Terminal Aerodrome Forecast
Issued by NWS

Home | Current Version | Previous Version | Graphics & Text | Print | Product List | Glossary On
Versions: 1 2 3 4 5 6 7 8 9 10 11 12 13 14 15 16 17 18 19 20 21 22 23 24 25 26 27
883
FTUS43 KLOT 190521
TAFORD
TAF
KORD 190521Z 1906/2012 32007KT P6SM SCT045 BKN080
     FM190800 30005KT P6SM FEW050 SCT150
     FM192200 09007KT P6SM FEW050
     FM200200 13003KT P6SM SKC=

USA.gov is the U.S. government's official web portal to all federal, state and local government web resources and services.